Time;durP1;ratioP1;P1;durP2;ratioP2;P2;SDS_P1;SDS_P2;PMS_P1;PMS_P2;Temp;Humidity;BMP_temperature;BMP_pressure;BME280_temperature;BME280_humidity;BME280_pressure;Samples;Min_cycle;Max_cycle;Signal;HPM_P1;HPM_P2
2021/10/28 00:14:33;;;;;;;98.30;38.73;;;;;;;;;;4992179;28;20058;-72
2021/10/28 00:17:00;;;;;;;88.23;38.10;;;;;;;;;;4991622;28;20084;-74
2021/10/28 00:19:28;;;;;;;87.77;36.93;;;;;;;;;;4990420;28;20030;-72
2021/10/28 00:21:55;;;;;;;88.63;37.47;;;;;;;;;;4990064;28;20070;-72
2021/10/28 00:24:20;;;;;;;88.17;39.37;;;;;;;;;;4991378;28;20023;-73
2021/10/28 00:26:47;;;;;;;84.93;37.20;;;;;;;;;;4990037;28;20080;-72
2021/10/28 00:29:18;;;;;;;90.57;40.07;;;;;;;;;;4990109;28;20116;-72
2021/10/28 00:31:46;;;;;;;92.27;38.43;;;;;;;;;;5006306;28;20034;-72
2021/10/28 00:34:14;;;;;;;89.87;38.90;;;;;;;;;;4989471;28;20050;-73
2021/10/28 00:36:43;;;;;;;92.37;37.87;;;;;;;;;;4990159;28;20062;-72
2021/10/28 00:39:08;;;;;;;89.10;38.43;;;;;;;;;;4989499;28;20026;-75
2021/10/28 00:41:36;;;;;;;83.80;35.30;;;;;;;;;;4991282;28;20367;-72
2021/10/28 00:44:03;;;;;;;87.50;36.27;;;;;;;;;;4991305;28;20466;-72
2021/10/28 00:46:33;;;;;;;77.83;35.03;;;;;;;;;;4991590;28;20026;-72
2021/10/28 00:49:00;;;;;;;83.33;34.73;;;;;;;;;;4989901;28;20238;-72
2021/10/28 00:51:28;;;;;;;83.77;35.80;;;;;;;;;;4990718;28;20109;-72
2021/10/28 00:53:56;;;;;;;92.83;37.50;;;;;;;;;;4989772;28;20030;-71
2021/10/28 00:56:24;;;;;;;93.00;37.13;;;;;;;;;;4989876;28;20088;-72
2021/10/28 00:58:50;;;;;;;91.33;37.30;;;;;;;;;;4989607;28;20034;-73
2021/10/28 01:01:16;;;;;;;83.57;35.40;;;;;;;;;;4989672;28;20084;-72
2021/10/28 01:03:42;;;;;;;85.13;35.73;;;;;;;;;;4989595;28;20031;-72
2021/10/28 01:06:09;;;;;;;79.10;33.67;;;;;;;;;;5007798;28;20031;-73
2021/10/28 01:08:38;;;;;;;90.70;35.13;;;;;;;;;;4993016;28;20030;-71
2021/10/28 01:11:05;;;;;;;81.53;33.53;;;;;;;;;;4994385;28;20061;-72
2021/10/28 01:13:30;;;;;;;81.50;33.70;;;;;;;;;;5009979;28;20074;-71
2021/10/28 01:15:56;;;;;;;90.63;36.43;;;;;;;;;;4990244;28;20522;-73
2021/10/28 01:18:23;;;;;;;81.67;35.40;;;;;;;;;;4990676;28;20030;-73
2021/10/28 01:20:51;;;;;;;79.47;33.67;;;;;;;;;;5006140;28;20031;-72
2021/10/28 01:23:21;;;;;;;82.93;35.57;;;;;;;;;;4989460;28;20030;-72
2021/10/28 01:26:01;;;;;;;88.20;35.80;;;;;;;;;;4990796;28;20137;-73
2021/10/28 01:28:29;;;;;;;83.87;34.63;;;;;;;;;;4989644;28;20030;-72
2021/10/28 01:31:01;;;;;;;92.47;35.77;;;;;;;;;;4990841;28;20053;-72
2021/10/28 01:33:27;;;;;;;90.75;35.40;;;;;;;;;;4991177;28;20476;-73
2021/10/28 01:35:54;;;;;;;84.47;34.20;;;;;;;;;;4989553;28;20465;-72
2021/10/28 01:38:21;;;;;;;75.10;32.90;;;;;;;;;;4990806;28;20026;-72
2021/10/28 01:41:00;;;;;;;86.47;36.07;;;;;;;;;;4990988;28;20054;-72
2021/10/28 01:43:28;;;;;;;86.73;36.23;;;;;;;;;;5005643;28;20026;-72
2021/10/28 01:45:53;;;;;;;82.67;36.40;;;;;;;;;;5005534;28;20041;-72
2021/10/28 01:48:20;;;;;;;75.20;36.10;;;;;;;;;;4989079;28;20461;-71
2021/10/28 01:50:46;;;;;;;79.30;34.30;;;;;;;;;;4989065;28;20034;-71
2021/10/28 01:53:13;;;;;;;95.37;36.77;;;;;;;;;;4988899;28;20509;-72
2021/10/28 01:55:39;;;;;;;92.30;34.73;;;;;;;;;;4990313;28;20054;-71
2021/10/28 01:58:06;;;;;;;84.53;36.27;;;;;;;;;;5005352;28;20510;-72
2021/10/28 02:00:32;;;;;;;86.37;34.63;;;;;;;;;;4989063;28;20524;-72
2021/10/28 02:02:57;;;;;;;84.83;32.97;;;;;;;;;;4991209;28;20026;-73
2021/10/28 02:05:23;;;;;;;91.17;36.70;;;;;;;;;;5008684;28;20061;-74
2021/10/28 02:07:50;;;;;;;85.03;35.90;;;;;;;;;;4994044;28;20026;-72
2021/10/28 02:10:18;;;;;;;93.70;36.87;;;;;;;;;;4993518;28;20022;-72
2021/10/28 02:12:46;;;;;;;86.37;35.17;;;;;;;;;;4992537;28;20509;-72
2021/10/28 02:15:14;;;;;;;95.37;37.37;;;;;;;;;;4993291;28;20109;-72
2021/10/28 02:17:40;;;;;;;112.30;34.90;;;;;;;;;;4993468;28;20030;-72
2021/10/28 02:20:07;;;;;;;96.97;33.90;;;;;;;;;;4992132;28;20033;-73
2021/10/28 02:22:34;;;;;;;97.13;34.73;;;;;;;;;;5008422;28;20385;-72
2021/10/28 02:25:00;;;;;;;94.50;36.23;;;;;;;;;;4993263;28;20367;-72
2021/10/28 02:27:25;;;;;;;79.20;35.23;;;;;;;;;;5008409;28;20085;-72
2021/10/28 02:29:51;;;;;;;91.93;37.07;;;;;;;;;;4993367;28;20069;-72
2021/10/28 02:32:17;;;;;;;96.90;34.60;;;;;;;;;;4992912;28;20505;-72
2021/10/28 02:34:42;;;;;;;98.60;37.63;;;;;;;;;;4992014;28;20113;-72
2021/10/28 02:37:08;;;;;;;113.83;36.33;;;;;;;;;;4992982;28;20437;-73
2021/10/28 02:39:34;;;;;;;98.40;36.27;;;;;;;;;;4993268;28;20425;-72
2021/10/28 02:42:00;;;;;;;94.97;33.73;;;;;;;;;;4991705;28;20030;-71
2021/10/28 02:44:26;;;;;;;95.40;36.13;;;;;;;;;;4991392;28;20079;-73
2021/10/28 02:46:52;;;;;;;76.47;34.93;;;;;;;;;;4991584;28;20026;-72
2021/10/28 02:49:17;;;;;;;113.60;36.73;;;;;;;;;;5007951;28;20092;-72
2021/10/28 02:51:49;;;;;;;90.97;33.83;;;;;;;;;;4992865;28;20034;-72
2021/10/28 02:54:20;;;;;;;93.13;35.60;;;;;;;;;;4992781;28;20062;-72
2021/10/28 02:56:46;;;;;;;89.28;33.17;;;;;;;;;;4992997;28;20030;-72
2021/10/28 02:59:12;;;;;;;81.27;31.97;;;;;;;;;;4991112;28;20022;-73
2021/10/28 03:01:50;;;;;;;81.40;32.77;;;;;;;;;;4991393;28;20022;-71
2021/10/28 03:04:19;;;;;;;84.83;34.53;;;;;;;;;;4992602;28;20085;-73
2021/10/28 03:06:46;;;;;;;78.57;32.70;;;;;;;;;;4991695;28;20435;-73
2021/10/28 03:09:17;;;;;;;79.40;33.73;;;;;;;;;;4992472;28;20042;-73
2021/10/28 03:11:43;;;;;;;93.00;35.15;;;;;;;;;;4992718;28;20022;-73
2021/10/28 03:14:12;;;;;;;86.10;32.27;;;;;;;;;;4992085;28;20026;-72
2021/10/28 03:27:24;;;;;;;88.33;35.43;;;;;;;;;;4992540;28;20041;-73
2021/10/28 03:29:50;;;;;;;88.63;31.10;;;;;;;;;;4992356;28;20034;-73
2021/10/28 03:32:18;;;;;;;86.90;34.10;;;;;;;;;;4990521;28;20138;-73
2021/10/28 03:34:44;;;;;;;77.43;32.33;;;;;;;;;;4990650;28;20045;-72
2021/10/28 03:37:18;;;;;;;86.83;34.93;;;;;;;;;;4990581;28;20072;-73
2021/10/28 03:40:18;;;;;;;87.67;34.00;;;;;;;;;;4992151;28;20388;-73
2021/10/28 04:17:17;;;;;;;89.10;33.23;;;;;;;;;;4991294;28;20093;-73
2021/10/28 04:29:37;;;;;;;77.57;31.80;;;;;;;;;;4991583;28;20056;-72
2021/10/28 04:32:03;;;;;;;86.17;34.47;;;;;;;;;;5006292;28;20474;-73
2021/10/28 04:34:29;;;;;;;77.90;33.80;;;;;;;;;;4989942;28;20121;-73
2021/10/28 04:36:54;;;;;;;82.57;33.93;;;;;;;;;;4991343;28;20097;-72
2021/10/28 04:39:20;;;;;;;82.57;33.67;;;;;;;;;;4990867;28;20023;-72
2021/10/28 04:41:46;;;;;;;82.60;33.37;;;;;;;;;;5006162;28;20038;-72
2021/10/28 04:44:12;;;;;;;72.10;33.27;;;;;;;;;;4991159;28;20022;-73
2021/10/28 04:46:38;;;;;;;74.43;30.27;;;;;;;;;;4989249;28;20022;-72
2021/10/28 04:49:04;;;;;;;79.20;30.50;;;;;;;;;;4990926;28;20029;-71
2021/10/28 04:51:30;;;;;;;79.37;30.27;;;;;;;;;;5005836;28;20378;-72
2021/10/28 04:53:55;;;;;;;70.57;29.63;;;;;;;;;;4989726;28;20486;-73
2021/10/28 04:56:21;;;;;;;78.13;31.63;;;;;;;;;;4989397;28;20030;-72
2021/10/28 04:58:46;;;;;;;71.33;30.87;;;;;;;;;;4989777;28;20062;-72
2021/10/28 05:01:12;;;;;;;67.57;31.40;;;;;;;;;;4991218;28;20030;-71
2021/10/28 05:03:37;;;;;;;85.57;33.03;;;;;;;;;;4989320;28;20076;-71
2021/10/28 05:06:03;;;;;;;70.30;30.20;;;;;;;;;;4990924;28;20136;-72
2021/10/28 05:08:29;;;;;;;75.67;30.17;;;;;;;;;;4990810;28;20363;-73
2021/10/28 05:10:54;;;;;;;75.53;30.87;;;;;;;;;;4989310;28;20417;-71
2021/10/28 05:13:20;;;;;;;76.53;29.80;;;;;;;;;;4990713;28;20061;-72
2021/10/28 05:15:48;;;;;;;75.07;31.60;;;;;;;;;;4989714;28;20034;-73
2021/10/28 05:18:15;;;;;;;75.00;31.17;;;;;;;;;;5005852;28;20629;-73
2021/10/28 05:20:41;;;;;;;72.33;29.60;;;;;;;;;;4989730;28;20031;-73
2021/10/28 05:23:07;;;;;;;69.73;31.70;;;;;;;;;;5005611;28;20100;-73
2021/10/28 05:25:33;;;;;;;74.33;31.97;;;;;;;;;;4989113;28;20218;-72
2021/10/28 05:28:00;;;;;;;74.33;33.10;;;;;;;;;;4989463;28;20026;-72
2021/10/28 05:30:26;;;;;;;75.03;33.13;;;;;;;;;;4989604;28;20038;-73
2021/10/28 05:32:51;;;;;;;79.50;34.20;;;;;;;;;;4989239;28;20050;-72
2021/10/28 05:35:18;;;;;;;76.37;30.77;;;;;;;;;;4989211;28;20032;-73
2021/10/28 05:37:44;;;;;;;93.90;35.33;;;;;;;;;;4991520;28;20031;-73
2021/10/28 05:40:11;;;;;;;109.90;37.43;;;;;;;;;;4994816;28;20034;-72
2021/10/28 05:42:38;;;;;;;85.83;34.07;;;;;;;;;;4994497;28;20130;-72
2021/10/28 05:45:04;;;;;;;96.43;36.70;;;;;;;;;;4994431;28;20458;-73
2021/10/28 05:47:31;;;;;;;89.53;36.03;;;;;;;;;;4996414;28;20033;-72
2021/10/28 05:49:57;;;;;;;95.50;36.67;;;;;;;;;;4994633;28;20041;-72
2021/10/28 05:52:23;;;;;;;93.10;35.40;;;;;;;;;;4994233;28;20026;-73
2021/10/28 05:54:49;;;;;;;86.47;33.70;;;;;;;;;;4994271;28;20461;-73
2021/10/28 05:57:15;;;;;;;83.17;31.03;;;;;;;;;;4994197;28;20026;-73
2021/10/28 05:59:40;;;;;;;73.17;30.13;;;;;;;;;;4993866;28;20109;-73
2021/10/28 06:02:06;;;;;;;82.60;32.90;;;;;;;;;;5009024;28;20030;-72
2021/10/28 06:04:32;;;;;;;79.03;30.00;;;;;;;;;;5008552;28;20026;-73
2021/10/28 06:06:57;;;;;;;88.80;34.47;;;;;;;;;;4994018;28;20038;-74
2021/10/28 06:09:23;;;;;;;75.47;31.23;;;;;;;;;;4992893;28;20014;-73
2021/10/28 06:11:51;;;;;;;85.10;35.33;;;;;;;;;;5012417;28;20056;-73
2021/10/28 06:14:22;;;;;;;76.90;32.30;;;;;;;;;;4997131;28;20023;-72
2021/10/28 06:16:54;;;;;;;80.33;31.53;;;;;;;;;;4994839;28;20030;-72
2021/10/28 06:19:19;;;;;;;84.30;33.75;;;;;;;;;;4993217;28;20118;-72
2021/10/28 06:21:45;;;;;;;73.60;29.73;;;;;;;;;;4992597;28;20117;-72
2021/10/28 06:24:10;;;;;;;74.80;31.37;;;;;;;;;;4993172;28;20389;-72
2021/10/28 06:26:36;;;;;;;76.40;31.53;;;;;;;;;;4992072;28;20453;-73
2021/10/28 06:29:01;;;;;;;82.93;32.47;;;;;;;;;;4991959;28;20447;-72
2021/10/28 06:31:27;;;;;;;80.17;32.70;;;;;;;;;;5008582;28;20031;-73
2021/10/28 06:34:00;;;;;;;78.63;31.77;;;;;;;;;;4993171;28;20046;-73
2021/10/28 06:36:26;;;;;;;72.27;29.53;;;;;;;;;;4993394;28;20072;-72
2021/10/28 06:38:51;;;;;;;81.00;32.50;;;;;;;;;;4991352;28;20109;-73
2021/10/28 06:41:17;;;;;;;79.47;31.60;;;;;;;;;;4991840;28;20117;-73
2021/10/28 06:43:42;;;;;;;76.10;30.53;;;;;;;;;;4993332;28;20358;-73
2021/10/28 06:46:08;;;;;;;79.97;33.33;;;;;;;;;;4991871;28;20584;-71
2021/10/28 06:48:35;;;;;;;76.83;30.23;;;;;;;;;;4992355;28;20018;-73
2021/10/28 06:51:03;;;;;;;85.87;34.33;;;;;;;;;;4991686;28;20041;-74
2021/10/28 06:53:32;;;;;;;77.43;32.97;;;;;;;;;;4992818;28;20062;-73
2021/10/28 06:56:04;;;;;;;81.70;33.33;;;;;;;;;;4992905;28;20647;-72
2021/10/28 07:03:58;;;;;;;84.20;33.30;;;;;;;;;;4993114;28;20540;-72
2021/10/28 07:06:26;;;;;;;79.80;31.90;;;;;;;;;;4992779;28;20105;-73
2021/10/28 07:08:57;;;;;;;85.37;33.87;;;;;;;;;;5007392;28;20022;-74
2021/10/28 07:11:27;;;;;;;94.70;35.95;;;;;;;;;;4991773;28;20026;-74
2021/10/28 07:13:54;;;;;;;82.30;34.77;;;;;;;;;;4991424;28;20054;-73
2021/10/28 07:16:37;;;;;;;94.10;35.87;;;;;;;;;;4992749;28;20033;-73
2021/10/28 07:22:14;;;;;;;84.87;33.27;;;;;;;;;;4984101;28;20053;-73
2021/10/28 07:27:33;;;;;;;101.30;39.07;;;;;;;;;;4992754;28;20033;-73
2021/10/28 07:30:26;;;;;;;94.47;35.95;;;;;;;;;;5007318;28;20030;-73
2021/10/28 07:33:09;;;;;;;96.20;36.83;;;;;;;;;;4992044;28;20477;-73
2021/10/28 08:16:59;;;;;;;86.20;34.37;;;;;;;;;;4990726;28;20362;-72
2021/10/28 08:21:54;;;;;;;88.50;36.73;;;;;;;;;;5006712;28;20346;-72
2021/10/28 08:29:45;;;;;;;94.03;36.50;;;;;;;;;;4990464;28;20045;-71
2021/10/28 08:32:11;;;;;;;100.90;38.08;;;;;;;;;;4988955;28;20026;-73
2021/10/28 08:34:39;;;;;;;93.53;38.20;;;;;;;;;;4988747;28;20100;-74
2021/10/28 08:37:13;;;;;;;104.20;36.87;;;;;;;;;;4989125;28;20038;-74
2021/10/28 08:39:40;;;;;;;95.93;36.87;;;;;;;;;;4990463;28;20029;-75
2021/10/28 08:42:10;;;;;;;99.70;37.33;;;;;;;;;;4988914;28;20030;-75
2021/10/28 08:44:40;;;;;;;97.50;39.30;;;;;;;;;;5004848;28;20109;-74
2021/10/28 08:47:09;;;;;;;100.00;38.23;;;;;;;;;;4991419;28;20027;-74
2021/10/28 08:49:42;;;;;;;96.80;38.77;;;;;;;;;;5005048;28;20057;-73
2021/10/28 08:54:54;;;;;;;96.93;38.47;;;;;;;;;;4990268;28;20462;-74
2021/10/28 09:00:23;;;;;;;90.27;35.90;;;;;;;;;;4990720;28;20117;-74
2021/10/28 09:25:54;;;;;;;100.43;38.10;;;;;;;;;;4994365;28;20041;-75
2021/10/28 09:28:34;;;;;;;105.43;37.05;;;;;;;;;;4993506;28;20519;-74
2021/10/28 09:31:09;;;;;;;100.90;37.83;;;;;;;;;;4993725;28;20175;-74
2021/10/28 09:34:25;;;;;;;97.17;39.13;;;;;;;;;;4991834;28;20042;-75
2021/10/28 09:48:35;;;;;;;107.13;38.53;;;;;;;;;;4993978;28;20433;-75
2021/10/28 09:51:04;;;;;;;106.17;39.77;;;;;;;;;;4993375;28;20027;-74
2021/10/28 09:53:45;;;;;;;99.37;42.00;;;;;;;;;;5008585;28;20060;-74
2021/10/28 09:59:06;;;;;;;101.97;39.17;;;;;;;;;;4993061;28;20122;-73
2021/10/28 10:01:46;;;;;;;108.70;41.23;;;;;;;;;;4991856;28;20026;-73
2021/10/28 10:04:14;;;;;;;95.47;39.60;;;;;;;;;;4991715;28;20031;-73
2021/10/28 10:06:42;;;;;;;97.43;39.73;;;;;;;;;;4992952;28;20028;-74
2021/10/28 10:09:09;;;;;;;100.03;37.93;;;;;;;;;;4993159;28;20018;-74
2021/10/28 10:11:35;;;;;;;104.87;39.67;;;;;;;;;;4993207;28;20022;-74
2021/10/28 10:14:02;;;;;;;91.13;36.83;;;;;;;;;;4991879;28;20387;-75
2021/10/28 10:16:29;;;;;;;91.47;36.73;;;;;;;;;;4991886;28;20497;-74
2021/10/28 10:18:55;;;;;;;93.23;40.90;;;;;;;;;;4991503;28;20084;-75
2021/10/28 10:21:37;;;;;;;93.27;38.47;;;;;;;;;;4991544;28;20026;-75
2021/10/28 10:24:14;;;;;;;99.05;40.42;;;;;;;;;;4990893;28;20023;-76
2021/10/28 12:01:41;;;;;;;108.53;43.70;;;;;;;;;;4991619;28;20031;-75
2021/10/28 12:45:53;;;;;;;89.05;39.30;;;;;;;;;;4990143;28;20034;-75
2021/10/28 12:51:39;;;;;;;82.68;39.38;;;;;;;;;;4990509;28;20041;-75
2021/10/28 14:00:22;;;;;;;75.93;35.20;;;;;;;;;;5007368;28;20061;-74
2021/10/28 14:29:44;;;;;;;73.35;34.53;;;;;;;;;;4993187;28;20024;-75
2021/10/28 15:35:07;;;;;;;89.47;40.45;;;;;;;;;;4992106;28;20033;-74
2021/10/28 15:37:59;;;;;;;92.47;35.70;;;;;;;;;;4991948;28;20018;-74
2021/10/28 15:54:02;;;;;;;90.85;39.28;;;;;;;;;;4990931;28;20029;-74
2021/10/28 15:59:38;;;;;;;102.95;41.95;;;;;;;;;;4990851;28;20822;-75
2021/10/28 16:23:52;;;;;;;122.37;48.53;;;;;;;;;;4990638;28;20034;-75
2021/10/28 16:26:17;;;;;;;96.73;44.30;;;;;;;;;;4990178;28;20111;-74
2021/10/28 16:28:43;;;;;;;113.20;47.87;;;;;;;;;;5005725;28;20109;-74
2021/10/28 16:31:09;;;;;;;107.83;45.17;;;;;;;;;;5005420;28;20498;-75
2021/10/28 16:33:34;;;;;;;109.50;44.67;;;;;;;;;;4989174;28;20065;-74
2021/10/28 16:36:00;;;;;;;123.80;47.33;;;;;;;;;;4990859;28;20062;-73
2021/10/28 16:38:26;;;;;;;120.57;47.60;;;;;;;;;;4990610;28;20061;-74
2021/10/28 16:40:51;;;;;;;106.83;46.33;;;;;;;;;;5005015;28;20383;-75
2021/10/28 16:43:17;;;;;;;103.27;42.80;;;;;;;;;;4988835;28;20076;-74
2021/10/28 16:45:47;;;;;;;114.70;46.63;;;;;;;;;;4990285;28;20704;-76
2021/10/28 16:48:14;;;;;;;128.23;44.10;;;;;;;;;;4989120;28;20037;-75
2021/10/28 16:50:40;;;;;;;115.37;44.47;;;;;;;;;;4989151;28;20022;-75
2021/10/28 16:53:07;;;;;;;113.23;46.47;;;;;;;;;;4988757;28;20033;-74
2021/10/28 16:55:33;;;;;;;112.07;44.20;;;;;;;;;;4990229;28;20022;-73
2021/10/28 16:57:59;;;;;;;122.83;46.87;;;;;;;;;;4988726;28;20492;-74
2021/10/28 17:00:24;;;;;;;124.23;50.57;;;;;;;;;;4990757;28;20033;-75
2021/10/28 17:02:50;;;;;;;104.87;46.47;;;;;;;;;;4988767;28;20529;-75
2021/10/28 17:05:16;;;;;;;114.10;43.33;;;;;;;;;;4988629;28;20445;-75
2021/10/28 17:07:43;;;;;;;103.90;42.70;;;;;;;;;;4988981;28;20041;-75
2021/10/28 17:10:09;;;;;;;107.97;42.10;;;;;;;;;;5004909;28;20030;-75
2021/10/28 17:12:36;;;;;;;95.87;42.97;;;;;;;;;;4990312;28;20077;-75
2021/10/28 17:15:04;;;;;;;97.20;41.73;;;;;;;;;;4988720;28;20080;-74
2021/10/28 17:17:29;;;;;;;90.53;38.67;;;;;;;;;;4988896;28;20026;-74
2021/10/28 17:19:59;;;;;;;90.60;39.00;;;;;;;;;;5005143;28;20390;-74
2021/10/28 17:22:25;;;;;;;100.70;41.90;;;;;;;;;;4988899;28;20057;-74
2021/10/28 17:24:51;;;;;;;97.10;43.83;;;;;;;;;;4990100;28;20125;-74
2021/10/28 17:27:18;;;;;;;104.50;41.77;;;;;;;;;;4988814;28;20030;-74
2021/10/28 17:29:44;;;;;;;108.17;43.13;;;;;;;;;;4990633;28;20027;-75
2021/10/28 17:32:10;;;;;;;98.93;40.77;;;;;;;;;;4988667;28;20473;-75
2021/10/28 17:34:36;;;;;;;88.87;38.97;;;;;;;;;;4993671;28;20034;-74
2021/10/28 17:37:03;;;;;;;91.97;39.77;;;;;;;;;;4992337;28;20069;-76
2021/10/28 17:39:29;;;;;;;97.97;36.83;;;;;;;;;;5008534;28;20034;-74
2021/10/28 17:41:57;;;;;;;87.60;36.03;;;;;;;;;;4992318;28;20026;-75
2021/10/28 17:44:34;;;;;;;84.83;36.37;;;;;;;;;;4992478;28;20026;-75
2021/10/28 17:47:00;;;;;;;84.93;36.53;;;;;;;;;;4992493;28;20041;-76
2021/10/28 17:49:25;;;;;;;77.97;32.17;;;;;;;;;;4993471;28;20032;-74
2021/10/28 17:51:51;;;;;;;80.97;36.90;;;;;;;;;;4992338;28;20117;-75
2021/10/28 17:54:17;;;;;;;80.20;33.93;;;;;;;;;;4993322;28;20022;-76
2021/10/28 17:56:42;;;;;;;82.07;34.57;;;;;;;;;;4993631;28;20464;-75
2021/10/28 17:59:08;;;;;;;67.03;32.10;;;;;;;;;;4993126;28;20459;-76
2021/10/28 18:01:38;;;;;;;61.23;28.80;;;;;;;;;;4993495;28;20038;-76
2021/10/28 18:04:04;;;;;;;75.23;34.33;;;;;;;;;;4993172;28;20019;-75
2021/10/28 18:06:31;;;;;;;67.53;31.67;;;;;;;;;;4993299;28;20022;-75
2021/10/28 18:08:57;;;;;;;78.27;32.00;;;;;;;;;;4993634;28;20029;-76
2021/10/28 18:11:25;;;;;;;72.27;29.80;;;;;;;;;;4992156;28;20038;-75
2021/10/28 18:13:54;;;;;;;60.20;29.37;;;;;;;;;;4993414;28;20053;-75
2021/10/28 18:16:23;;;;;;;61.77;31.13;;;;;;;;;;4991949;28;20126;-75
2021/10/28 18:18:50;;;;;;;64.53;30.87;;;;;;;;;;4991786;28;20521;-76
2021/10/28 18:21:16;;;;;;;69.40;31.57;;;;;;;;;;4991815;28;20037;-74
2021/10/28 18:23:48;;;;;;;62.50;30.20;;;;;;;;;;5008375;28;20030;-75
2021/10/28 18:26:13;;;;;;;89.43;33.08;;;;;;;;;;4991823;28;20121;-75
2021/10/28 18:28:39;;;;;;;68.17;30.70;;;;;;;;;;4991923;28;20113;-75
2021/10/28 18:31:05;;;;;;;83.30;35.43;;;;;;;;;;4992924;28;20026;-75
2021/10/28 18:33:30;;;;;;;70.07;30.03;;;;;;;;;;4991647;28;20049;-74
2021/10/28 18:35:56;;;;;;;68.47;30.67;;;;;;;;;;4993248;28;20023;-75
2021/10/28 18:38:21;;;;;;;72.43;32.20;;;;;;;;;;4992820;28;20386;-74
2021/10/28 18:40:47;;;;;;;65.73;29.70;;;;;;;;;;4991960;28;20042;-75
2021/10/28 18:43:16;;;;;;;64.80;30.37;;;;;;;;;;4992859;28;20466;-76
2021/10/28 18:45:43;;;;;;;75.87;31.30;;;;;;;;;;4990478;28;20033;-74
2021/10/28 18:48:11;;;;;;;76.63;29.37;;;;;;;;;;4990956;28;20026;-73
2021/10/28 18:50:37;;;;;;;68.33;29.73;;;;;;;;;;4992637;28;20025;-75
2021/10/28 18:53:03;;;;;;;60.43;27.47;;;;;;;;;;4991067;28;20465;-75
2021/10/28 18:55:29;;;;;;;60.13;28.23;;;;;;;;;;5007484;28;20030;-75
2021/10/28 18:57:56;;;;;;;62.30;29.20;;;;;;;;;;4990918;28;20029;-75
2021/10/28 19:00:21;;;;;;;59.90;30.60;;;;;;;;;;4992163;28;20089;-75
2021/10/28 19:02:47;;;;;;;61.10;28.97;;;;;;;;;;4991124;28;20094;-76
2021/10/28 19:05:13;;;;;;;66.43;29.97;;;;;;;;;;5007083;28;20097;-75
2021/10/28 19:07:39;;;;;;;69.67;31.80;;;;;;;;;;4990707;28;20064;-74
2021/10/28 19:10:06;;;;;;;68.27;32.73;;;;;;;;;;4990706;28;20022;-73
2021/10/28 19:12:32;;;;;;;61.33;29.87;;;;;;;;;;4990668;28;20038;-75
2021/10/28 19:14:57;;;;;;;65.23;30.73;;;;;;;;;;4990866;28;20028;-75
2021/10/28 19:17:23;;;;;;;61.43;30.13;;;;;;;;;;5006944;28;20405;-76
2021/10/28 19:19:49;;;;;;;64.97;29.10;;;;;;;;;;4990471;28;20085;-74
2021/10/28 19:22:15;;;;;;;58.00;27.57;;;;;;;;;;4991486;28;20033;-76
2021/10/28 19:24:41;;;;;;;59.80;29.37;;;;;;;;;;4990322;28;20406;-75
2021/10/28 19:27:08;;;;;;;62.70;28.93;;;;;;;;;;4990262;28;20057;-75
2021/10/28 19:29:37;;;;;;;54.97;27.83;;;;;;;;;;4990243;28;20018;-74
2021/10/28 19:32:08;;;;;;;64.00;30.60;;;;;;;;;;4990176;28;20141;-73
2021/10/28 19:34:40;;;;;;;72.47;31.73;;;;;;;;;;4991942;28;20030;-74
2021/10/28 19:40:11;;;;;;;69.83;32.30;;;;;;;;;;4991985;28;20497;-75
2021/10/28 19:47:37;;;;;;;84.30;31.37;;;;;;;;;;4991855;28;20030;-74
2021/10/28 19:50:03;;;;;;;57.97;27.60;;;;;;;;;;4989996;28;20042;-75
2021/10/28 19:52:29;;;;;;;61.43;29.73;;;;;;;;;;4991316;28;20034;-74
2021/10/28 19:54:58;;;;;;;59.93;29.23;;;;;;;;;;4989954;28;20027;-72
2021/10/28 19:57:26;;;;;;;55.83;26.77;;;;;;;;;;4989487;28;20474;-75
2021/10/28 20:00:06;;;;;;;57.30;26.90;;;;;;;;;;5005819;28;20071;-75
2021/10/28 20:13:17;;;;;;;57.67;26.93;;;;;;;;;;4991383;28;20086;-75
2021/10/28 20:21:12;;;;;;;51.70;26.13;;;;;;;;;;4990740;28;20056;-73
2021/10/28 20:23:39;;;;;;;62.67;25.47;;;;;;;;;;4990796;28;20018;-75
2021/10/28 20:26:05;;;;;;;56.20;26.40;;;;;;;;;;4989204;28;20026;-75
2021/10/28 20:28:37;;;;;;;56.83;27.20;;;;;;;;;;4989210;28;20041;-74
2021/10/28 20:31:04;;;;;;;56.07;26.23;;;;;;;;;;4990884;28;20381;-74
2021/10/28 20:33:33;;;;;;;49.43;26.03;;;;;;;;;;4990358;28;20058;-75
2021/10/28 20:38:36;;;;;;;67.37;31.07;;;;;;;;;;4992217;28;20029;-74
2021/10/28 20:41:01;;;;;;;87.83;32.00;;;;;;;;;;4990495;28;20380;-73
2021/10/28 20:43:27;;;;;;;79.13;32.37;;;;;;;;;;4991178;28;20027;-72
2021/10/28 20:45:53;;;;;;;74.47;31.40;;;;;;;;;;4989634;28;20030;-74
2021/10/28 20:48:19;;;;;;;68.47;30.37;;;;;;;;;;5006083;28;20022;-74
2021/10/28 20:50:44;;;;;;;65.93;30.60;;;;;;;;;;4991439;28;20022;-72
2021/10/28 20:53:10;;;;;;;59.80;30.40;;;;;;;;;;4989755;28;20109;-73
2021/10/28 20:55:35;;;;;;;58.10;27.93;;;;;;;;;;4991337;28;20101;-73
2021/10/28 20:58:01;;;;;;;60.67;29.60;;;;;;;;;;4989974;28;20097;-73
2021/10/28 21:00:27;;;;;;;58.50;29.03;;;;;;;;;;5006089;28;20054;-73
2021/10/28 21:02:56;;;;;;;69.10;29.30;;;;;;;;;;4990021;28;20394;-73
2021/10/28 21:05:22;;;;;;;62.43;30.17;;;;;;;;;;4991385;28;20176;-73
2021/10/28 21:07:51;;;;;;;63.10;29.67;;;;;;;;;;5008221;28;20030;-74
2021/10/28 21:10:21;;;;;;;66.93;30.73;;;;;;;;;;4995309;28;20397;-73
2021/10/28 21:12:47;;;;;;;64.03;30.37;;;;;;;;;;5011223;28;20502;-71
2021/10/28 21:15:13;;;;;;;64.90;31.37;;;;;;;;;;4995144;28;20065;-74
2021/10/28 21:17:40;;;;;;;60.83;28.63;;;;;;;;;;4995164;28;20022;-75
2021/10/28 21:20:07;;;;;;;61.67;30.00;;;;;;;;;;5011144;28;20035;-73
2021/10/28 21:22:35;;;;;;;66.10;30.20;;;;;;;;;;4995764;28;20100;-74
2021/10/28 21:25:00;;;;;;;63.30;30.77;;;;;;;;;;5010882;28;20042;-74
2021/10/28 21:27:26;;;;;;;56.40;30.03;;;;;;;;;;4993743;28;20026;-73
2021/10/28 21:29:53;;;;;;;76.07;34.67;;;;;;;;;;4994278;28;20434;-74
2021/10/28 21:32:18;;;;;;;67.47;30.93;;;;;;;;;;4994041;28;20594;-74
2021/10/28 21:34:46;;;;;;;64.63;31.73;;;;;;;;;;4994201;28;20026;-74
2021/10/28 21:37:15;;;;;;;66.63;29.47;;;;;;;;;;4995061;28;20116;-75
2021/10/28 21:39:41;;;;;;;65.37;31.83;;;;;;;;;;5010183;28;20029;-74
2021/10/28 21:42:08;;;;;;;60.97;29.27;;;;;;;;;;4994850;28;20024;-74
2021/10/28 21:44:35;;;;;;;72.47;31.53;;;;;;;;;;5009670;28;20037;-73
2021/10/28 21:47:01;;;;;;;71.57;30.13;;;;;;;;;;4994982;28;20029;-74
2021/10/28 21:49:26;;;;;;;58.87;29.47;;;;;;;;;;4994557;28;20382;-73
2021/10/28 21:51:56;;;;;;;60.53;30.50;;;;;;;;;;4994738;28;20034;-73
2021/10/28 21:57:20;;;;;;;73.70;32.33;;;;;;;;;;4994699;28;20446;-72
2021/10/28 22:24:27;;;;;;;78.77;31.37;;;;;;;;;;4994417;28;20092;-74
2021/10/28 22:26:53;;;;;;;64.45;31.08;;;;;;;;;;5009266;28;20037;-73
2021/10/28 22:29:19;;;;;;;58.77;30.67;;;;;;;;;;4993841;28;20034;-74
2021/10/28 22:31:45;;;;;;;65.47;31.57;;;;;;;;;;5008885;28;20537;-73
2021/10/28 22:34:11;;;;;;;64.53;31.50;;;;;;;;;;4993736;28;20166;-73
2021/10/28 22:36:44;;;;;;;67.13;32.40;;;;;;;;;;4992134;28;20493;-73
2021/10/28 22:39:14;;;;;;;61.30;31.27;;;;;;;;;;4992567;28;20034;-72
2021/10/28 22:41:40;;;;;;;61.23;31.07;;;;;;;;;;4992559;28;20124;-72
2021/10/28 22:44:06;;;;;;;67.57;31.53;;;;;;;;;;4993947;28;20084;-74
2021/10/28 22:46:31;;;;;;;69.60;34.37;;;;;;;;;;4991889;28;20044;-73
2021/10/28 22:48:57;;;;;;;75.43;35.97;;;;;;;;;;4992229;28;20197;-73
2021/10/28 22:51:24;;;;;;;72.43;34.13;;;;;;;;;;4991898;28;20053;-73
2021/10/28 22:53:51;;;;;;;64.63;31.57;;;;;;;;;;4992173;28;20445;-72
2021/10/28 22:56:17;;;;;;;65.10;32.90;;;;;;;;;;5007448;28;20092;-73
2021/10/28 22:58:45;;;;;;;74.50;33.93;;;;;;;;;;4991088;28;20044;-72
2021/10/28 23:01:18;;;;;;;66.43;34.50;;;;;;;;;;4991307;28;20038;-72
2021/10/28 23:07:21;;;;;;;67.33;32.77;;;;;;;;;;4951014;29;20062;-71
2021/10/28 23:20:48;;;;;;;67.40;31.67;;;;;;;;;;4992055;28;20494;-73
2021/10/28 23:23:14;;;;;;;73.00;35.27;;;;;;;;;;4990826;28;20034;-71
2021/10/28 23:25:39;;;;;;;67.63;32.10;;;;;;;;;;4991913;28;20343;-71
2021/10/28 23:28:05;;;;;;;76.80;33.00;;;;;;;;;;4990593;28;20038;-71
2021/10/28 23:30:31;;;;;;;69.27;32.83;;;;;;;;;;4989803;28;20474;-70
2021/10/28 23:32:59;;;;;;;71.30;34.57;;;;;;;;;;4990013;28;20126;-70
2021/10/28 23:35:28;;;;;;;67.23;32.67;;;;;;;;;;5006457;28;20034;-72
2021/10/28 23:37:55;;;;;;;66.67;32.70;;;;;;;;;;4990247;28;20065;-72
2021/10/28 23:40:21;;;;;;;79.20;32.63;;;;;;;;;;4991380;28;20101;-71
2021/10/28 23:42:47;;;;;;;76.03;35.40;;;;;;;;;;4990244;28;20057;-72
2021/10/28 23:45:12;;;;;;;67.70;33.57;;;;;;;;;;4990170;28;20077;-73
2021/10/28 23:47:38;;;;;;;70.03;33.27;;;;;;;;;;4990016;28;20030;-71
2021/10/28 23:50:04;;;;;;;69.53;33.93;;;;;;;;;;4990189;28;20061;-71
2021/10/28 23:52:30;;;;;;;70.73;35.53;;;;;;;;;;5006122;28;20042;-73
2021/10/28 23:54:56;;;;;;;63.37;32.77;;;;;;;;;;4989712;28;20121;-72